X  Sluiten METAR luchtvaart weer gegevens      EIDW Dublin Airport
Temperatuur
70°F Temperatuur
52°F Dauwpunt
53% Vochtigheid



Wind
7 MPH
11 KM/U
3 M/S
6 KTS



140°
ZO
Huidig weer

Helder Helder
Luchtdruk 1023.92 (hPa) - 30.24 (inHg)
Zicht 6.2 (mijl) - 10 (km)
Vliegveld
Vliegveld code EIDW

Locatie : Dublin Airport
Afstand: 17 (mi)

Metar:
EIDW 101930Z 14006KT 080V170 CAVOK 21/11 Q1024 NOSIG

Tijd: 10-08-2022 20:30 IST